Current | Forecast
Updated: 3:00 PM JST on May 25, 2017
Observed at Takamatsu Airport, Japan
Temperature 72°F
Humidity 94%
Dew Point 70°F
Wind East at 7 mph
Pressure 29.65 in (Steady)
Conditions Mostly Cloudy
Visibility 6.2 miles
UV 4 out of 16
Clouds (FEW) : 1000 ft
Scattered Clouds (SCT) : 3000 ft
Mostly Cloudy (BKN) : 8000 ft
Yesterday's Maximum 68°F
Yesterday's Minimum 64°F approx.
Yesterday's Cooling Degree Days 1 approx.
Sunrise4:57 AM JST
Sunset7:08 PM JST
Moon Rise4:33 AM JST
Moon Set6:22 PM JST
Moon PhaseMoon Phase
Waning Crescent
Raw METARMETAR RJOT 250600Z 08006KT 030V110 9999 FEW010 SCT030 BKN080 22/21 Q1004


Monday
. High: 71° F.
Tuesday
. High: 71° F.
Wednesday
. High: 69° F.
Thursday
. High: 73° F.
Friday
. High: 73° F.
Saturday
. High: 75° F.
Sunday
. High: 75° F.
Monday
. High: 77° F.

Units: English | Metric

Find the Weather for any City, State or Zipcode, or Country:

U.S. State List | Severe Weather | Tropical Storms | Ski Conditions
United States | Canada | Central America | South America | Asia | Europe | Australia | Africa | Islands

Weather Underground

© Copyright 2017
The Weather Company, LLC